Chlef Aboubakr Belkaid International Airport

DAOI · Chlef, Algeria

METAR history DAOI · Chlef Aboubakr Belkaid International Airport

Below you see METARs of the last few days. Select a year to browse through older METARs, from the year 2007 onwards.

November 28, 2022

Time Code Weather Temp. Visibility Ceiling Wind METAR/SPECI
06:00
V
6 °C 10 km+ - Var 000° 0 kt METAR DAOI 280500Z 00000KT CAVOK 06/M03 Q1020
05:00
V
8 °C 10 km+ - 050° 050° 7 kt METAR DAOI 280400Z 05007KT CAVOK 08/M03 Q1019
04:00
V
9 °C 10 km+ - 050° 050° 9 kt METAR DAOI 280300Z 05009KT CAVOK 09/M03 Q1020
03:00
V
9 °C 10 km+ - 060° 060° 8 kt METAR DAOI 280200Z 06008KT CAVOK 09/M04 Q1021
02:00
V
10 °C 10 km+ - 050° 050° 7 kt METAR DAOI 280100Z 05007KT CAVOK 10/M04 Q1021
01:00
V
10 °C 10 km+ - 060° 060° 7 kt METAR DAOI 280000Z 06007KT CAVOK 10/M03 Q1021
00:00
V
11 °C 10 km+ - 050° 050° 7 kt METAR DAOI 272300Z 05007KT CAVOK 11/M02 Q1022

November 27, 2022

Time Code Weather Temp. Visibility Ceiling Wind METAR/SPECI
23:00
V
10 °C 10 km+ - 070° 070° 5 kt METAR DAOI 272200Z 07005KT CAVOK 10/M02 Q1022
22:00
V
13 °C 10 km+ - 060° 060° 7 kt METAR DAOI 272100Z 06007KT CAVOK 13/M03 Q1022
21:00
V
14 °C 10 km+ - 050° 050° 5 kt METAR DAOI 272000Z 05005KT CAVOK 14/M06 Q1023
20:00
V
13 °C 10 km+ - 090° 090° 3 kt METAR DAOI 271900Z 09003KT CAVOK 13/M04 Q1023
19:00
V
15 °C 10 km+ - 020° 020° 5 kt METAR DAOI 271800Z 02005KT CAVOK 15/M04 Q1023
18:00
V
16 °C 10 km+ - 030° 030° 5 kt METAR DAOI 271700Z 03005KT CAVOK 16/00 Q1023
17:00
V
18 °C 10 km+ - 070° 070° 3 kt METAR DAOI 271600Z 07003KT CAVOK 18/00 Q1024
16:00
V
19 °C 10 km+ - 120° 120° 4 kt METAR DAOI 271500Z 12004KT CAVOK 19/00 Q1024
15:00
V
18 °C 10 km+ - 060° 060° 4 kt METAR DAOI 271400Z 06004KT CAVOK 18/M01 Q1024
14:00
V
18 °C 10 km+ - 060° 060° 4 kt METAR DAOI 271300Z 06004KT CAVOK 18/04 Q1025
13:00
V
16 °C 10 km+ - 080° 080° 4 kt METAR DAOI 271200Z 08004KT CAVOK 16/04 Q1026
12:00
V
14 °C 10 km+ - 080° 080° 8 kt METAR DAOI 271100Z 08008KT CAVOK 14/05 Q1028
11:00
V
12 °C 10 km+ - 080° 080° 10 kt METAR DAOI 271000Z 08010KT CAVOK 12/05 Q1028
10:00
V
10 °C 10 km+ - 060° 060° 8 kt METAR DAOI 270900Z 06008KT CAVOK 10/05 Q1029
09:00
V
9 °C 10 km+ - 060° 060° 8 kt METAR DAOI 270800Z 06008KT CAVOK 09/05 Q1028
08:00
V
8 °C 10 km+ - 080° 080° 8 kt METAR DAOI 270700Z 08008KT CAVOK 08/05 Q1028
07:00
V
8 °C 10 km+ - 060° 060° 6 kt METAR DAOI 270600Z 06006KT CAVOK 08/06 Q1028
06:00
V
8 °C 10 km+ - 060° 060° 5 kt METAR DAOI 270500Z 06005KT CAVOK 08/05 Q1028
05:00
V
8 °C 10 km+ - 060° 060° 6 kt METAR DAOI 270400Z 06006KT CAVOK 08/06 Q1029
04:00
V
8 °C 10 km+ - 050° 050° 5 kt METAR DAOI 270300Z 05005KT CAVOK 08/05 Q1029
03:00
V
9 °C 10 km+ - 080° 080° 6 kt METAR DAOI 270200Z 08006KT CAVOK 09/06 Q1029
02:00
V
9 °C 10 km+ - 040° 040° 4 kt METAR DAOI 270100Z 04004KT CAVOK 09/06 Q1029
01:00
V
10 °C 10 km+ - 040° 040° 4 kt METAR DAOI 270000Z 04004KT CAVOK 10/07 Q1030
00:00
V
10 °C 10 km+ - Var 000° 0 kt METAR DAOI 262300Z 00000KT CAVOK 10/06 Q1029

November 26, 2022

Time Code Weather Temp. Visibility Ceiling Wind METAR/SPECI
23:00
V
10 °C 10 km+ - Var 000° 0 kt METAR DAOI 262200Z 00000KT CAVOK 10/06 Q1030
22:00
V
11 °C 10 km+ - Var 000° 0 kt METAR DAOI 262100Z 00000KT CAVOK 11/06 Q1030
21:00
V
13 °C 10 km+ - Var 000° 0 kt METAR DAOI 262000Z 00000KT CAVOK 13/07 Q1030
20:00
V
14 °C 10 km+ - Var 000° 0 kt METAR DAOI 261900Z 00000KT CAVOK 14/06 Q1029
19:00
V
15 °C 10 km+ - 340° 340° 8 kt METAR DAOI 261800Z 34008KT CAVOK 15/06 Q1029
18:00
V
15 °C 10 km+ - 320° 320° 6 kt METAR DAOI 261700Z 32006KT CAVOK 15/06 Q1029
17:00
V
17 °C 10 km+ - 320° 320° 10 kt METAR DAOI 261600Z 32010KT CAVOK 17/05 Q1028
16:00
V
19 °C 10 km+ - 040° 040° 6 kt METAR DAOI 261500Z 04006KT 9999 FEW026 19/02 Q1028
15:00
V
19 °C 10 km+ - 340° 340° 10 kt METAR DAOI 261400Z 34010KT 9999 FEW026 19/02 Q1028
14:00
V
19 °C 10 km+ - 340° 340° 8 kt METAR DAOI 261300Z 34008KT 9999 FEW026 19/04 Q1028
13:00
V
18 °C 10 km+ - 320° 320° 8 kt METAR DAOI 261200Z 32008KT 9999 SCT026 18/06 Q1029
12:00
V
18 °C 10 km+ - 220° 220° 4 kt METAR DAOI 261100Z 22004KT 9999 SCT026 18/09 Q1030
11:00
V
16 °C 10 km+ - 200° 200° 4 kt METAR DAOI 261000Z 20004KT 9999 FEW026 16/11 Q1030
10:00
M
14 °C 7 km - Var 000° 0 kt METAR DAOI 260900Z 00000KT 7000 FEW026 14/12 Q1030
09:00
I
12 °C 1.5 km - Var Var 1 kt METAR DAOI 260800Z VRB01KT 1500 BCFG FEW008 12/11 Q1030
08:00
L
10 °C 800 m - 020° 020° 4 kt METAR DAOI 260700Z 02004KT 0800 BCFG FEW020 10/10 Q1029
07:00
L
11 °C 700 m - Var Var 2 kt METAR DAOI 260600Z VRB02KT 0700 FG FEW020 11/09 Q1028
06:00
M
12 °C 6 km - Var Var 2 kt METAR DAOI 260500Z VRB02KT 6000 FEW020 12/10 Q1028
05:00
V
12 °C 8 km - 040° 040° 3 kt METAR DAOI 260400Z 04003KT 8000 SCT026 12/11 Q1028
04:00
V
12 °C 8 km - 040° 040° 4 kt METAR DAOI 260300Z 04004KT 8000 SCT026 12/11 Q1028
03:00
V
13 °C 8 km - 040° 040° 3 kt METAR DAOI 260200Z 04003KT 8000 SCT026 13/12 Q1028
02:00
V
13 °C 8 km - 040° 040° 3 kt METAR DAOI 260100Z 04003KT 8000 SCT026 13/12 Q1028
01:00
V
13 °C 8 km - Var Var 1 kt METAR DAOI 260000Z VRB01KT 8000 SCT026 SCT100 13/12 Q1028
00:00
V
14 °C 9 km - Var 000° 0 kt METAR DAOI 252300Z 00000KT 9000 SCT026 14/13 Q1028

November 25, 2022

Time Code Weather Temp. Visibility Ceiling Wind METAR/SPECI
23:00
V
15 °C 9 km - Var Var 1 kt METAR DAOI 252200Z VRB01KT 9000 SCT026 15/13 Q1027
22:00
V
15 °C 9 km - Var Var 1 kt METAR DAOI 252100Z VRB01KT 9000 SCT026 SCT200 15/13 Q1026
21:00
V
16 °C 10 km+ - 270° 270° 4 kt METAR DAOI 252000Z 27004KT 9999 SCT026 SCT200 16/13 Q1026
20:00
V
16 °C 10 km+ - Var 000° 0 kt METAR DAOI 251900Z 00000KT 9999 FEW026 SCT200 16/12 Q1025
19:00
V
17 °C 10 km+ - 230° 230° 3 kt METAR DAOI 251800Z 23003KT 9999 FEW026 SCT200 17/12 Q1025
18:00
V
18 °C 10 km+ - 280° 280° 7 kt METAR DAOI 251700Z 28007KT 9999 FEW026 SCT200 18/12 Q1024
17:00
V
20 °C 10 km+ 20,000 ft 280° 280° 9 kt METAR DAOI 251600Z 28009KT 9999 FEW026 BKN200 20/12 Q1024
16:00
V
21 °C 10 km+ - 250° 250° 10 kt METAR DAOI 251500Z 25010KT 230V290 9999 SCT026 SCT200 21/12 Q1023
15:00
V
22 °C 10 km+ - 230° 230° 10 kt METAR DAOI 251400Z 23010KT 200V260 9999 SCT026 22/13 Q1023
14:00
V
20 °C 9 km - 220° 220° 11 kt METAR DAOI 251300Z 22011KT 180V250 9000 SCT023 SCT100 20/12 Q1023
13:00
M
19 °C 6 km - 240° 240° 6 kt METAR DAOI 251200Z 24006KT 190V280 6000 SCT020 SCT100 19/13 Q1023
12:00
I
16 °C 4 km 2,000 ft 080° 080° 3 kt METAR DAOI 251100Z 08003KT 030V120 4000 BR BKN020 16/14 Q1024
11:00
I
15 °C 3 km 1,500 ft Var Var 2 kt METAR DAOI 251000Z VRB02KT 3000 BR BKN015 15/15 Q1025

We and third parties follow your internet behavior on our website with cookies. If you continue, we assume you agree with our cookie policy.